Accueil
METAR-TAF:

METAR-TAF

Aéroports :

Saglek Bay, Terre-Neuve-et-Labrador, Canada

latitude: 58-20N, longitude: 062-35W, altitude: 483 m

Observation

Le bulletin a été fait il y a 11 minutes, à 21:38 UTC
Vent 50 kt de nord-est avec des rafales jusqu'à 67 kt
Température -3°C
Humidité 100%
Pression 1003 hPa
Ciel couvert à une hauteur de 200 ft

METAR: CWZZ 192138Z AUTO 04050G67KT ////SM OVC002 M03/M03 A2961

Heure: 18:49 (21:49 UTC)


TAF: absent

Observations et prévisions météorologiques de plus de 4000 aéroports (messages METAR et TAF).

Les stations disponibles sont représentées par des disques jaunes et rouges sur la carte.

Passer la souris dessus pour voir le nom de la station.

Cliquer dessus pour voir les observations et prévisions météorologiques.

Pour changer de carte: cliquez sur les boutons verts avec une croix noire pour zoomer, sur le bouton vert avec un tiret pour effectuer un zoom arrière, ou sur les flèches vertes pour les cartes adjacentes.


METAR-TAF: